createdAt,value
2022-12-29T00:02:04.413Z,100.00
2022-12-29T00:04:31.062Z,100.00
2022-12-29T00:06:57.920Z,100.00
2022-12-29T00:09:24.459Z,100.00
2022-12-29T00:11:51.217Z,100.00
2022-12-29T00:14:36.202Z,100.00
2022-12-29T00:17:03.228Z,100.00
2022-12-29T00:19:52.833Z,100.00
2022-12-29T00:22:38.209Z,100.00
2022-12-29T00:25:24.129Z,100.00
2022-12-29T00:28:09.100Z,100.00
2022-12-29T00:30:55.431Z,100.00
2022-12-29T00:33:44.894Z,100.00
2022-12-29T00:36:44.744Z,100.00
2022-12-29T00:39:33.806Z,100.00
2022-12-29T00:42:26.789Z,100.00
2022-12-29T00:44:53.425Z,100.00
2022-12-29T00:47:19.951Z,100.00
2022-12-29T00:49:46.584Z,100.00
2022-12-29T00:52:13.993Z,100.00
2022-12-29T00:54:42.005Z,100.00
2022-12-29T00:57:10.356Z,100.00
2022-12-29T00:59:41.072Z,100.00
2022-12-29T01:02:08.380Z,100.00
2022-12-29T01:04:35.824Z,100.00
2022-12-29T01:07:02.363Z,100.00
2022-12-29T01:09:47.475Z,100.00
2022-12-29T01:12:14.342Z,100.00
2022-12-29T01:14:44.369Z,100.00
2022-12-29T01:17:10.869Z,100.00
2022-12-29T01:19:37.329Z,100.00
2022-12-29T01:22:03.835Z,100.00
2022-12-29T01:24:30.354Z,100.00
2022-12-29T01:26:56.845Z,100.00
2022-12-29T01:29:24.092Z,100.00
2022-12-29T01:31:51.123Z,100.00
2022-12-29T01:34:18.750Z,100.00
2022-12-29T01:36:45.336Z,100.00
2022-12-29T01:39:11.912Z,100.00
2022-12-29T01:41:38.484Z,100.00
2022-12-29T01:44:48.558Z,100.00
2022-12-29T01:47:31.551Z,100.00
2022-12-29T01:50:02.201Z,100.00
2022-12-29T01:52:32.883Z,100.00
2022-12-29T01:55:00.956Z,100.00
2022-12-29T01:57:32.413Z,100.00
2022-12-29T02:00:11.507Z,100.00
2022-12-29T02:02:38.869Z,100.00
2022-12-29T02:05:15.159Z,100.00
2022-12-29T02:07:42.425Z,100.00
2022-12-29T02:10:09.071Z,100.00
2022-12-29T02:12:35.743Z,100.00
2022-12-29T02:15:04.920Z,100.00
2022-12-29T02:18:16.405Z,100.00
2022-12-29T02:20:53.656Z,100.00
2022-12-29T02:23:44.163Z,100.00
2022-12-29T02:26:10.648Z,100.00
2022-12-29T02:28:37.063Z,100.00
2022-12-29T02:31:58.679Z,100.00
2022-12-29T02:34:34.164Z,100.00
2022-12-29T02:37:17.619Z,100.00
2022-12-29T02:40:09.715Z,100.00
2022-12-29T02:42:55.400Z,100.00
2022-12-29T02:46:00.550Z,100.00
2022-12-29T02:48:39.572Z,100.00
2022-12-29T02:51:10.708Z,100.00
2022-12-29T02:53:56.967Z,100.00
2022-12-29T02:56:23.571Z,100.00
2022-12-29T02:58:50.076Z,100.00
2022-12-29T03:01:28.338Z,100.00
2022-12-29T03:04:00.569Z,100.00
2022-12-29T03:06:53.226Z,100.00
2022-12-29T03:09:44.556Z,100.00
2022-12-29T03:12:25.010Z,100.00
2022-12-29T03:15:23.132Z,100.00
2022-12-29T03:17:55.155Z,100.00
2022-12-29T03:20:24.903Z,100.00
2022-12-29T03:22:54.485Z,100.00
2022-12-29T03:25:30.038Z,100.00
2022-12-29T03:28:08.514Z,100.00
2022-12-29T03:30:36.871Z,100.00
2022-12-29T03:33:07.024Z,100.00
2022-12-29T03:35:38.251Z,100.00
2022-12-29T03:38:23.927Z,100.00
2022-12-29T03:40:56.283Z,100.00
2022-12-29T03:43:23.008Z,100.00
2022-12-29T03:45:51.458Z,100.00
2022-12-29T03:48:18.025Z,100.00
2022-12-29T03:50:46.729Z,100.00
2022-12-29T03:53:13.228Z,100.00
2022-12-29T03:55:39.756Z,100.00
2022-12-29T03:58:06.268Z,100.00
2022-12-29T04:00:32.803Z,100.00
2022-12-29T04:02:59.461Z,100.00
2022-12-29T04:05:26.125Z,100.00
2022-12-29T04:07:52.638Z,100.00
2022-12-29T04:10:19.118Z,100.00
2022-12-29T04:12:47.503Z,100.00
2022-12-29T04:15:14.257Z,100.00
2022-12-29T04:17:40.710Z,100.00
2022-12-29T04:20:26.514Z,100.00
2022-12-29T04:23:03.240Z,100.00
2022-12-29T04:25:31.031Z,100.00
2022-12-29T04:27:57.643Z,100.00
2022-12-29T04:30:24.402Z,100.00
2022-12-29T04:32:50.849Z,100.00
2022-12-29T04:35:17.420Z,100.00
2022-12-29T04:37:44.952Z,100.00
2022-12-29T04:40:12.078Z,100.00
2022-12-29T04:42:38.683Z,100.00
2022-12-29T04:45:05.649Z,100.00
2022-12-29T04:47:32.115Z,100.00
2022-12-29T04:49:58.548Z,100.00
2022-12-29T04:52:25.048Z,100.00
2022-12-29T04:54:51.515Z,100.00
2022-12-29T04:57:19.303Z,100.00
2022-12-29T04:59:45.830Z,100.00
2022-12-29T05:02:12.414Z,100.00
2022-12-29T05:04:39.029Z,100.00
2022-12-29T05:07:05.484Z,100.00
2022-12-29T05:09:31.975Z,100.00
2022-12-29T05:11:58.445Z,100.00
2022-12-29T05:14:24.958Z,100.00
2022-12-29T05:16:51.512Z,100.00
2022-12-29T05:19:18.186Z,100.00
2022-12-29T05:21:45.107Z,100.00
2022-12-29T05:24:11.644Z,100.00
2022-12-29T05:26:38.154Z,100.00
2022-12-29T05:29:04.679Z,100.00
2022-12-29T05:31:31.271Z,100.00
2022-12-29T05:33:57.736Z,100.00
2022-12-29T05:36:24.345Z,100.00
2022-12-29T05:38:50.839Z,100.00
2022-12-29T05:41:17.644Z,100.00
2022-12-29T05:43:44.755Z,100.00
2022-12-29T05:46:11.353Z,100.00
2022-12-29T05:48:38.422Z,100.00
2022-12-29T05:51:05.148Z,100.00
2022-12-29T05:53:31.767Z,100.00
2022-12-29T05:55:58.299Z,100.00
2022-12-29T05:58:24.849Z,100.00
2022-12-29T06:00:52.198Z,100.00
2022-12-29T06:03:18.830Z,100.00
2022-12-29T06:05:47.027Z,100.00
2022-12-29T06:08:13.800Z,100.00
2022-12-29T06:10:40.703Z,100.00
2022-12-29T06:13:07.433Z,100.00
2022-12-29T06:15:34.924Z,100.00
2022-12-29T06:18:01.617Z,100.00
2022-12-29T06:20:28.661Z,100.00
2022-12-29T06:22:55.133Z,100.00
2022-12-29T06:25:21.679Z,100.00
2022-12-29T06:27:48.207Z,100.00
2022-12-29T06:30:15.799Z,100.00
2022-12-29T06:32:42.491Z,100.00
2022-12-29T06:35:09.797Z,100.00
2022-12-29T06:37:36.524Z,100.00
2022-12-29T06:40:03.104Z,100.00
2022-12-29T06:42:31.575Z,100.00
2022-12-29T06:44:59.841Z,100.00
2022-12-29T06:47:26.422Z,100.00
2022-12-29T06:49:52.943Z,100.00
2022-12-29T06:52:19.589Z,100.00
2022-12-29T06:54:46.102Z,100.00
2022-12-29T06:57:12.832Z,100.00
2022-12-29T06:59:39.433Z,100.00
2022-12-29T07:02:22.846Z,100.00
2022-12-29T07:04:50.529Z,100.00
2022-12-29T07:07:22.949Z,100.00
2022-12-29T07:09:49.387Z,100.00
2022-12-29T07:12:15.985Z,100.00
2022-12-29T07:14:43.690Z,100.00
2022-12-29T07:17:10.546Z,100.00
2022-12-29T07:19:37.152Z,100.00
2022-12-29T07:22:03.613Z,100.00
2022-12-29T07:24:30.849Z,100.00
2022-12-29T07:26:57.468Z,100.00
2022-12-29T07:29:24.205Z,100.00
2022-12-29T07:31:50.734Z,100.00
2022-12-29T07:34:18.489Z,100.00
2022-12-29T07:36:45.079Z,100.00
2022-12-29T07:39:12.620Z,100.00
2022-12-29T07:41:39.093Z,100.00
2022-12-29T07:44:08.367Z,100.00
2022-12-29T07:46:54.237Z,100.00
2022-12-29T07:49:21.322Z,100.00
2022-12-29T07:51:47.801Z,100.00
2022-12-29T07:54:14.308Z,100.00
2022-12-29T07:56:41.426Z,100.00
2022-12-29T07:59:07.911Z,100.00
2022-12-29T08:01:34.591Z,100.00
2022-12-29T08:04:01.207Z,100.00
2022-12-29T08:06:31.701Z,100.00
2022-12-29T08:09:01.535Z,100.00
2022-12-29T08:11:30.757Z,100.00
2022-12-29T08:13:57.255Z,100.00
2022-12-29T08:16:23.725Z,100.00
2022-12-29T08:18:50.262Z,100.00
2022-12-29T08:21:16.740Z,100.00
2022-12-29T08:23:43.252Z,100.00
2022-12-29T08:26:11.394Z,100.00
2022-12-29T08:28:38.140Z,100.00
2022-12-29T08:31:04.791Z,100.00
2022-12-29T08:33:31.519Z,100.00
2022-12-29T08:36:02.810Z,100.00
2022-12-29T08:38:29.972Z,100.00
2022-12-29T08:40:57.814Z,100.00
2022-12-29T08:43:25.139Z,100.00
2022-12-29T08:45:52.015Z,100.00
2022-12-29T08:48:20.606Z,100.00
2022-12-29T08:50:47.697Z,100.00
2022-12-29T08:53:14.232Z,100.00
2022-12-29T08:55:40.810Z,100.00
2022-12-29T08:58:07.314Z,100.00
2022-12-29T09:00:33.900Z,100.00
2022-12-29T09:03:00.551Z,100.00
2022-12-29T09:05:27.141Z,100.00
2022-12-29T09:07:53.612Z,100.00
2022-12-29T09:10:20.223Z,100.00
2022-12-29T09:12:46.977Z,100.00
2022-12-29T09:15:13.844Z,100.00
2022-12-29T09:17:46.564Z,100.00
2022-12-29T09:20:15.021Z,100.00
2022-12-29T09:22:42.181Z,100.00
2022-12-29T09:25:10.116Z,100.00
2022-12-29T09:27:37.159Z,100.00
2022-12-29T09:30:10.365Z,100.00
2022-12-29T09:32:41.942Z,100.00
2022-12-29T09:35:12.573Z,100.00
2022-12-29T09:37:39.334Z,100.00
2022-12-29T09:40:07.427Z,100.00
2022-12-29T09:43:12.128Z,100.00
2022-12-29T09:45:50.824Z,100.00
2022-12-29T09:48:21.283Z,100.00
2022-12-29T09:50:56.440Z,100.00
2022-12-29T09:53:31.031Z,100.00
2022-12-29T09:56:01.083Z,100.00
2022-12-29T09:58:42.463Z,100.00
2022-12-29T10:01:23.128Z,100.00
2022-12-29T10:03:52.674Z,100.00
2022-12-29T10:07:28.546Z,100.00
2022-12-29T10:10:03.670Z,100.00
2022-12-29T10:13:00.997Z,100.00
2022-12-29T10:15:42.858Z,100.00
2022-12-29T10:18:46.155Z,100.00
2022-12-29T10:21:58.876Z,100.00
2022-12-29T10:24:27.668Z,100.00
2022-12-29T10:26:56.568Z,100.00
2022-12-29T10:29:34.758Z,100.00
2022-12-29T10:32:06.781Z,100.00
2022-12-29T10:34:46.011Z,100.00
2022-12-29T10:37:18.318Z,100.00
2022-12-29T10:39:56.280Z,100.00
2022-12-29T10:42:27.605Z,100.00
2022-12-29T10:44:59.492Z,100.00
2022-12-29T10:47:29.244Z,100.00
2022-12-29T10:49:56.321Z,100.00
2022-12-29T10:52:24.375Z,100.00
2022-12-29T10:54:54.789Z,100.00
2022-12-29T10:57:33.796Z,100.00
2022-12-29T11:00:00.423Z,100.00
2022-12-29T11:02:45.382Z,100.00
2022-12-29T11:05:29.745Z,100.00
2022-12-29T11:08:02.424Z,100.00
2022-12-29T11:10:39.764Z,100.00
2022-12-29T11:13:16.933Z,100.00
2022-12-29T11:15:49.541Z,100.00
2022-12-29T11:18:22.862Z,100.00
2022-12-29T11:20:52.228Z,100.00
2022-12-29T11:23:41.364Z,100.00
2022-12-29T11:26:17.752Z,100.00
2022-12-29T11:29:05.127Z,100.00
2022-12-29T11:31:31.783Z,100.00
2022-12-29T11:33:58.276Z,100.00
2022-12-29T11:36:25.702Z,100.00
2022-12-29T11:38:55.524Z,100.00
2022-12-29T11:41:32.159Z,100.00
2022-12-29T11:44:02.208Z,100.00
2022-12-29T11:46:32.508Z,100.00
2022-12-29T11:49:01.497Z,100.00
2022-12-29T11:51:31.390Z,100.00
2022-12-29T11:54:00.956Z,100.00
2022-12-29T11:56:42.234Z,100.00
2022-12-29T11:59:39.667Z,100.00
2022-12-29T12:02:21.626Z,100.00
2022-12-29T12:04:52.027Z,100.00
2022-12-29T12:07:28.366Z,99.50
2022-12-29T12:10:06.569Z,98.88
2022-12-29T12:12:36.806Z,98.24
2022-12-29T12:15:04.586Z,98.30
2022-12-29T12:17:40.947Z,98.53
2022-12-29T12:20:28.650Z,97.50
2022-12-29T12:23:21.816Z,97.33
2022-12-29T12:26:06.557Z,97.18
2022-12-29T12:28:43.191Z,97.80
2022-12-29T12:31:36.812Z,96.50
2022-12-29T12:34:10.196Z,96.84
2022-12-29T12:37:01.705Z,96.99
2022-12-29T12:39:48.975Z,96.95
2022-12-29T12:42:25.229Z,97.03
2022-12-29T12:44:57.647Z,96.12
2022-12-29T12:47:46.338Z,97.51
2022-12-29T12:50:36.384Z,97.99
2022-12-29T12:53:21.653Z,98.00
2022-12-29T12:56:14.331Z,97.31
2022-12-29T12:58:58.373Z,97.39
2022-12-29T13:01:53.444Z,96.93
2022-12-29T13:04:38.722Z,96.92
2022-12-29T13:07:45.273Z,96.74
2022-12-29T13:10:24.296Z,96.15
2022-12-29T13:12:53.725Z,95.57
2022-12-29T13:15:47.713Z,95.69
2022-12-29T13:18:32.971Z,95.68
2022-12-29T13:21:25.316Z,96.05
2022-12-29T13:24:00.587Z,95.68
2022-12-29T13:26:36.692Z,94.20
2022-12-29T13:29:50.536Z,93.63
2022-12-29T13:32:45.721Z,93.63
2022-12-29T13:35:27.513Z,93.14
2022-12-29T13:37:59.804Z,91.65
2022-12-29T13:40:31.000Z,91.91
2022-12-29T13:42:58.519Z,91.05
2022-12-29T13:45:29.827Z,91.42
2022-12-29T13:48:01.204Z,91.35
2022-12-29T13:50:30.993Z,91.72
2022-12-29T13:52:57.401Z,91.24
2022-12-29T13:55:30.923Z,92.10
2022-12-29T13:58:32.665Z,92.34
2022-12-29T14:01:12.737Z,92.56
2022-12-29T14:03:49.954Z,91.84
2022-12-29T14:06:20.164Z,90.66
2022-12-29T14:08:49.043Z,90.96
2022-12-29T14:11:17.832Z,91.05
2022-12-29T14:13:47.123Z,91.05
2022-12-29T14:16:34.581Z,90.83
2022-12-29T14:19:35.260Z,89.83
2022-12-29T14:22:05.501Z,90.49
2022-12-29T14:24:40.883Z,89.68
2022-12-29T14:27:10.464Z,90.07
2022-12-29T14:29:39.878Z,88.49
2022-12-29T14:32:26.647Z,89.60
2022-12-29T14:34:58.675Z,88.48
2022-12-29T14:37:27.028Z,89.21
2022-12-29T14:40:15.537Z,88.87
2022-12-29T14:42:43.121Z,89.35
2022-12-29T14:45:30.841Z,89.93
2022-12-29T14:47:57.948Z,89.01
2022-12-29T14:50:42.138Z,89.14
2022-12-29T14:53:48.678Z,90.15
2022-12-29T14:56:18.450Z,90.21
2022-12-29T14:58:47.855Z,90.50
2022-12-29T15:01:40.341Z,90.75
2022-12-29T15:04:23.935Z,90.70
2022-12-29T15:06:51.305Z,90.46
2022-12-29T15:09:37.351Z,91.33
2022-12-29T15:12:30.090Z,93.74
2022-12-29T15:14:59.165Z,95.81
2022-12-29T15:17:33.791Z,98.00
2022-12-29T15:20:02.908Z,99.56
2022-12-29T15:22:31.371Z,100.00
2022-12-29T15:24:58.852Z,100.00
2022-12-29T15:27:27.101Z,100.00
2022-12-29T15:30:02.917Z,100.00
2022-12-29T15:32:39.552Z,100.00
2022-12-29T15:35:24.203Z,100.00
2022-12-29T15:37:50.716Z,99.82
2022-12-29T15:40:25.304Z,99.92
2022-12-29T15:43:19.093Z,99.77
2022-12-29T15:45:45.829Z,100.00
2022-12-29T15:48:19.314Z,100.00
2022-12-29T15:50:47.075Z,100.00
2022-12-29T15:53:25.523Z,100.00
2022-12-29T15:55:55.874Z,100.00
2022-12-29T15:58:27.892Z,100.00
2022-12-29T16:01:04.300Z,100.00
2022-12-29T16:03:37.347Z,100.00
2022-12-29T16:06:26.003Z,100.00
2022-12-29T16:09:07.734Z,100.00
2022-12-29T16:11:38.715Z,100.00
2022-12-29T16:14:18.087Z,100.00
2022-12-29T16:16:48.251Z,100.00
2022-12-29T16:19:27.649Z,100.00
2022-12-29T16:22:23.027Z,100.00
2022-12-29T16:24:49.726Z,99.46
2022-12-29T16:27:42.540Z,99.55
2022-12-29T16:30:18.753Z,99.78
2022-12-29T16:32:50.672Z,100.00
2022-12-29T16:35:31.093Z,100.00
2022-12-29T16:38:17.248Z,100.00
2022-12-29T16:41:04.309Z,100.00
2022-12-29T16:43:32.604Z,100.00
2022-12-29T16:45:59.131Z,100.00
2022-12-29T16:48:39.557Z,100.00
2022-12-29T16:51:14.870Z,100.00
2022-12-29T16:53:48.113Z,100.00
2022-12-29T16:56:21.173Z,100.00
2022-12-29T16:58:56.999Z,99.57
2022-12-29T17:01:26.691Z,98.60
2022-12-29T17:03:56.507Z,98.92
2022-12-29T17:06:23.831Z,99.49
2022-12-29T17:08:51.887Z,99.37
2022-12-29T17:11:43.421Z,99.42
2022-12-29T17:14:22.513Z,98.76
2022-12-29T17:16:52.389Z,98.88
2022-12-29T17:19:31.659Z,98.85
2022-12-29T17:21:58.183Z,98.76
2022-12-29T17:24:24.720Z,99.07
2022-12-29T17:26:54.772Z,99.46
2022-12-29T17:29:33.632Z,99.60
2022-12-29T17:32:01.630Z,100.00
2022-12-29T17:34:28.262Z,100.00
2022-12-29T17:36:57.819Z,99.93
2022-12-29T17:39:24.453Z,100.00
2022-12-29T17:41:57.026Z,99.57
2022-12-29T17:44:26.718Z,99.73
2022-12-29T17:46:53.228Z,99.96
2022-12-29T17:49:19.762Z,100.00
2022-12-29T17:51:47.712Z,100.00
2022-12-29T17:54:23.711Z,100.00
2022-12-29T17:56:50.373Z,99.76
2022-12-29T17:59:17.453Z,99.29
2022-12-29T18:01:46.010Z,99.46
2022-12-29T18:04:20.363Z,98.66
2022-12-29T18:06:47.852Z,98.40
2022-12-29T18:09:14.869Z,97.77
2022-12-29T18:11:43.404Z,97.65
2022-12-29T18:14:17.183Z,98.05
2022-12-29T18:16:44.271Z,97.88
2022-12-29T18:19:12.041Z,98.06
2022-12-29T18:21:41.625Z,98.26
2022-12-29T18:24:14.885Z,98.27
2022-12-29T18:26:41.835Z,98.35
2022-12-29T18:29:08.409Z,98.39
2022-12-29T18:31:36.539Z,98.43
2022-12-29T18:34:13.126Z,98.29
2022-12-29T18:36:45.545Z,98.21
2022-12-29T18:39:12.124Z,97.83
2022-12-29T18:41:38.603Z,97.57
2022-12-29T18:44:05.243Z,97.50
2022-12-29T18:46:31.867Z,97.56
2022-12-29T18:48:58.549Z,97.27
2022-12-29T18:51:26.554Z,97.01
2022-12-29T18:53:56.592Z,97.24
2022-12-29T18:56:27.268Z,97.71
2022-12-29T18:58:57.041Z,97.43
2022-12-29T19:01:27.657Z,97.13
2022-12-29T19:03:57.621Z,96.32
2022-12-29T19:06:24.136Z,95.14
2022-12-29T19:08:50.578Z,94.53
2022-12-29T19:11:17.839Z,94.88
2022-12-29T19:13:44.393Z,94.83
2022-12-29T19:16:20.330Z,94.28
2022-12-29T19:18:58.120Z,93.37
2022-12-29T19:21:30.511Z,93.42
2022-12-29T19:23:57.480Z,92.73
2022-12-29T19:26:34.390Z,92.13
2022-12-29T19:29:01.052Z,92.01
2022-12-29T19:31:27.961Z,92.34
2022-12-29T19:33:54.818Z,91.42
2022-12-29T19:36:21.994Z,91.86
2022-12-29T19:38:48.879Z,90.94
2022-12-29T19:41:15.708Z,90.89
2022-12-29T19:43:45.179Z,90.80
2022-12-29T19:46:16.849Z,90.80
2022-12-29T19:48:43.737Z,91.47
2022-12-29T19:51:13.565Z,91.08
2022-12-29T19:53:40.061Z,91.39
2022-12-29T19:56:08.639Z,91.48
2022-12-29T19:58:43.844Z,91.53
2022-12-29T20:01:16.255Z,91.72
2022-12-29T20:03:43.330Z,91.97
2022-12-29T20:06:14.507Z,92.42
2022-12-29T20:08:41.196Z,92.37
2022-12-29T20:11:13.585Z,92.13
2022-12-29T20:13:40.713Z,92.01
2022-12-29T20:16:11.309Z,92.00
2022-12-29T20:18:41.233Z,92.20
2022-12-29T20:21:12.024Z,92.63
2022-12-29T20:23:42.616Z,92.40
2022-12-29T20:26:13.888Z,92.13
2022-12-29T20:28:40.656Z,92.71
2022-12-29T20:31:14.697Z,92.59
2022-12-29T20:33:41.735Z,92.53
2022-12-29T20:36:20.250Z,92.73
2022-12-29T20:38:47.697Z,93.00
2022-12-29T20:41:14.711Z,93.33
2022-12-29T20:43:41.957Z,93.69
2022-12-29T20:46:09.344Z,93.84
2022-12-29T20:48:36.081Z,93.90
2022-12-29T20:51:02.591Z,94.13
2022-12-29T20:53:33.655Z,94.48
2022-12-29T20:56:04.098Z,94.57
2022-12-29T20:58:31.170Z,94.57
2022-12-29T21:01:02.871Z,94.78
2022-12-29T21:03:30.125Z,94.89
2022-12-29T21:05:56.695Z,95.21
2022-12-29T21:08:23.914Z,95.23
2022-12-29T21:10:51.655Z,94.98
2022-12-29T21:13:18.993Z,95.10
2022-12-29T21:15:46.688Z,94.67
2022-12-29T21:18:13.846Z,94.76
2022-12-29T21:20:44.312Z,94.87
2022-12-29T21:23:10.800Z,94.74
2022-12-29T21:25:42.931Z,94.09
2022-12-29T21:28:13.333Z,94.00
2022-12-29T21:30:40.259Z,94.06
2022-12-29T21:33:09.818Z,93.91
2022-12-29T21:35:39.295Z,95.43
2022-12-29T21:38:09.272Z,97.67
2022-12-29T21:40:46.259Z,100.00
2022-12-29T21:43:14.449Z,100.00
2022-12-29T21:45:40.998Z,100.00
2022-12-29T21:48:24.136Z,100.00
2022-12-29T21:51:12.717Z,100.00
2022-12-29T21:53:42.625Z,100.00
2022-12-29T21:56:18.217Z,100.00
2022-12-29T21:59:08.191Z,100.00
2022-12-29T22:01:56.673Z,100.00
2022-12-29T22:04:44.123Z,100.00
2022-12-29T22:07:33.702Z,100.00
2022-12-29T22:10:18.361Z,100.00
2022-12-29T22:13:03.405Z,100.00
2022-12-29T22:15:35.945Z,99.60
2022-12-29T22:18:03.392Z,99.63
2022-12-29T22:20:32.511Z,99.54
2022-12-29T22:22:59.473Z,99.42
2022-12-29T22:25:26.451Z,99.30
2022-12-29T22:27:58.941Z,98.43
2022-12-29T22:30:31.003Z,97.28
2022-12-29T22:32:58.584Z,96.98
2022-12-29T22:35:32.017Z,96.55
2022-12-29T22:38:02.128Z,95.85
2022-12-29T22:40:28.669Z,96.04
2022-12-29T22:42:55.175Z,95.42
2022-12-29T22:45:21.868Z,94.32
2022-12-29T22:47:49.754Z,92.86
2022-12-29T22:50:16.229Z,91.60
2022-12-29T22:52:42.705Z,92.02
2022-12-29T22:55:12.690Z,89.79
2022-12-29T22:57:39.220Z,90.14
2022-12-29T23:00:08.479Z,90.18
2022-12-29T23:02:35.294Z,89.79
2022-12-29T23:05:04.387Z,88.55
2022-12-29T23:07:32.604Z,88.79
2022-12-29T23:09:59.119Z,88.64
2022-12-29T23:12:31.407Z,86.84
2022-12-29T23:15:02.160Z,86.25
2022-12-29T23:17:30.654Z,86.11
2022-12-29T23:19:57.176Z,85.49
2022-12-29T23:22:24.919Z,86.61
2022-12-29T23:24:51.437Z,87.21
2022-12-29T23:27:18.074Z,87.37
2022-12-29T23:29:44.566Z,87.23
2022-12-29T23:32:11.147Z,87.54
2022-12-29T23:34:37.923Z,87.67
2022-12-29T23:37:05.042Z,88.15
2022-12-29T23:39:31.498Z,88.38
2022-12-29T23:41:58.098Z,88.69
2022-12-29T23:44:24.598Z,89.09
2022-12-29T23:46:51.228Z,88.77
2022-12-29T23:49:17.710Z,88.84
2022-12-29T23:51:44.262Z,88.39
2022-12-29T23:54:14.017Z,87.79
2022-12-29T23:56:40.493Z,87.21
2022-12-29T23:59:06.966Z,87.64
